หน้าหลัก
METAR-TAF:

METAR-TAF

ท่าอากาศยาน :

Hohn, เยอรมนี

ละติจูด: 54-19N, ลองจิจูด: 009-32E, ความสูง: 12 ม.

การสังเกตสภาพอากาศปัจจุบัน

รายงานได้ทำขึ้นเมื่อ 1 ชั่วโมงและ 12 นาทีที่แล้ว ณ เวลา 00:20 UTC
ลม 2 นอตจากตะวันออก
อุณหภูมิ 15°C
ความชื้น 94%
ความกดอากาศ 1017 hPa

METAR: ETNH 200020Z AUTO 10002KT //// // ////// 15/14 Q1017 ///

เวลา: 03:32 (01:32 UTC)


TAF: หายไป

สังเกตการณ์สภาพอากาศและพยากรณ์อากาศของสนามบินมากกว่า 4000 แห่ง (รายงาน METAR และ TAF).

สถานีที่ดูได้จะแสดงไว้ด้วยจุดสีเหลืองและสีแดงบนแผนที่.

เลื่อนเมาส์ไปเหนือจุดเพื่อดูชื่อสถานี.

แล้วคลิกเพื่อดูสังเกตการณ์และการพยากรณ์สภาพอากาศ.

ในการเปลี่ยนแผนที่: คลิกที่ปุ่มสีเขียวที่มีกากบาทสีดำเพื่อซูมเข้า; ที่ปุ่มสีเขียวที่มีขีดเพื่อซูมออก; หรือที่ลูกศรสีเขียวเพื่อไปยังแผนที่ที่อยู่ติดกัน.


METAR-TAF: